sensor_id;sensor_type;location;lat;lon;timestamp;P1;durP1;ratioP1;P2;durP2;ratioP2
12228;SDS011;6177;52.402;9.800;2022-12-24T00:02:20;5.63;;;5.20;;
12228;SDS011;6177;52.402;9.800;2022-12-24T00:05:05;5.80;;;5.30;;
12228;SDS011;6177;52.402;9.800;2022-12-24T00:07:51;5.57;;;5.07;;
12228;SDS011;6177;52.402;9.800;2022-12-24T00:10:36;6.23;;;5.83;;
12228;SDS011;6177;52.402;9.800;2022-12-24T00:13:29;5.40;;;5.00;;
12228;SDS011;6177;52.402;9.800;2022-12-24T00:16:16;5.53;;;5.23;;
12228;SDS011;6177;52.402;9.800;2022-12-24T00:19:01;6.67;;;6.20;;
12228;SDS011;6177;52.402;9.800;2022-12-24T00:21:51;6.33;;;5.93;;
12228;SDS011;6177;52.402;9.800;2022-12-24T00:24:36;6.03;;;5.63;;
12228;SDS011;6177;52.402;9.800;2022-12-24T00:27:21;6.20;;;5.80;;
12228;SDS011;6177;52.402;9.800;2022-12-24T00:30:06;5.27;;;4.87;;
12228;SDS011;6177;52.402;9.800;2022-12-24T00:32:52;5.80;;;5.40;;
12228;SDS011;6177;52.402;9.800;2022-12-24T00:35:37;6.37;;;5.97;;
12228;SDS011;6177;52.402;9.800;2022-12-24T00:38:24;5.73;;;5.37;;
12228;SDS011;6177;52.402;9.800;2022-12-24T00:41:09;5.27;;;4.97;;
12228;SDS011;6177;52.402;9.800;2022-12-24T00:44:08;5.90;;;5.50;;
12228;SDS011;6177;52.402;9.800;2022-12-24T00:46:54;5.47;;;5.17;;
12228;SDS011;6177;52.402;9.800;2022-12-24T00:49:39;5.50;;;5.17;;
12228;SDS011;6177;52.402;9.800;2022-12-24T00:52:24;6.20;;;5.80;;
12228;SDS011;6177;52.402;9.800;2022-12-24T00:55:09;5.83;;;5.40;;
12228;SDS011;6177;52.402;9.800;2022-12-24T00:57:54;5.70;;;5.30;;
12228;SDS011;6177;52.402;9.800;2022-12-24T01:00:39;6.40;;;5.90;;
12228;SDS011;6177;52.402;9.800;2022-12-24T01:03:24;6.00;;;5.60;;
12228;SDS011;6177;52.402;9.800;2022-12-24T01:06:22;6.40;;;5.90;;
12228;SDS011;6177;52.402;9.800;2022-12-24T01:09:07;6.70;;;6.20;;
12228;SDS011;6177;52.402;9.800;2022-12-24T01:11:52;6.30;;;5.80;;
12228;SDS011;6177;52.402;9.800;2022-12-24T01:14:37;6.43;;;6.03;;
12228;SDS011;6177;52.402;9.800;2022-12-24T01:17:22;6.27;;;5.87;;
12228;SDS011;6177;52.402;9.800;2022-12-24T01:20:07;7.13;;;6.43;;
12228;SDS011;6177;52.402;9.800;2022-12-24T01:22:55;7.60;;;6.90;;
12228;SDS011;6177;52.402;9.800;2022-12-24T01:25:40;6.67;;;6.23;;
12228;SDS011;6177;52.402;9.800;2022-12-24T01:28:25;7.07;;;6.53;;
12228;SDS011;6177;52.402;9.800;2022-12-24T01:33:57;7.13;;;6.63;;
12228;SDS011;6177;52.402;9.800;2022-12-24T01:36:43;7.43;;;6.87;;
12228;SDS011;6177;52.402;9.800;2022-12-24T01:39:28;7.53;;;7.03;;
12228;SDS011;6177;52.402;9.800;2022-12-24T01:42:20;7.60;;;7.00;;
12228;SDS011;6177;52.402;9.800;2022-12-24T01:45:43;8.10;;;7.40;;
12228;SDS011;6177;52.402;9.800;2022-12-24T01:48:36;8.20;;;7.43;;
12228;SDS011;6177;52.402;9.800;2022-12-24T01:51:29;7.93;;;7.30;;
12228;SDS011;6177;52.402;9.800;2022-12-24T01:54:26;6.63;;;6.20;;
12228;SDS011;6177;52.402;9.800;2022-12-24T02:01:31;6.60;;;6.13;;
12228;SDS011;6177;52.402;9.800;2022-12-24T02:07:35;6.87;;;6.37;;
12228;SDS011;6177;52.402;9.800;2022-12-24T02:10:20;7.17;;;6.67;;
12228;SDS011;6177;52.402;9.800;2022-12-24T02:13:05;7.23;;;6.73;;
12228;SDS011;6177;52.402;9.800;2022-12-24T02:18:57;8.10;;;7.50;;
12228;SDS011;6177;52.402;9.800;2022-12-24T02:28:09;8.13;;;7.53;;
12228;SDS011;6177;52.402;9.800;2022-12-24T02:31:17;7.93;;;7.27;;
12228;SDS011;6177;52.402;9.800;2022-12-24T02:34:08;8.37;;;7.67;;
12228;SDS011;6177;52.402;9.800;2022-12-24T02:37:11;9.03;;;8.23;;
12228;SDS011;6177;52.402;9.800;2022-12-24T02:43:03;11.17;;;9.23;;
12228;SDS011;6177;52.402;9.800;2022-12-24T02:45:58;8.00;;;7.40;;
12228;SDS011;6177;52.402;9.800;2022-12-24T02:48:55;8.63;;;7.87;;
12228;SDS011;6177;52.402;9.800;2022-12-24T02:51:43;10.17;;;9.10;;
12228;SDS011;6177;52.402;9.800;2022-12-24T02:54:29;8.97;;;8.27;;
12228;SDS011;6177;52.402;9.800;2022-12-24T02:57:32;9.03;;;7.90;;
12228;SDS011;6177;52.402;9.800;2022-12-24T03:00:22;12.73;;;7.93;;
12228;SDS011;6177;52.402;9.800;2022-12-24T03:08:54;9.60;;;5.90;;
12228;SDS011;6177;52.402;9.800;2022-12-24T03:11:52;10.93;;;5.33;;
12228;SDS011;6177;52.402;9.800;2022-12-24T03:14:44;11.03;;;4.43;;
12228;SDS011;6177;52.402;9.800;2022-12-24T03:17:33;13.77;;;5.53;;
12228;SDS011;6177;52.402;9.800;2022-12-24T03:20:24;12.83;;;4.93;;
12228;SDS011;6177;52.402;9.800;2022-12-24T03:23:14;12.57;;;4.60;;
12228;SDS011;6177;52.402;9.800;2022-12-24T03:25:59;9.70;;;4.20;;
12228;SDS011;6177;52.402;9.800;2022-12-24T03:28:48;13.83;;;4.43;;
12228;SDS011;6177;52.402;9.800;2022-12-24T03:31:44;17.00;;;4.93;;
12228;SDS011;6177;52.402;9.800;2022-12-24T03:34:31;12.27;;;4.77;;
12228;SDS011;6177;52.402;9.800;2022-12-24T03:37:16;6.97;;;4.47;;
12228;SDS011;6177;52.402;9.800;2022-12-24T03:40:01;16.47;;;4.57;;
12228;SDS011;6177;52.402;9.800;2022-12-24T03:42:47;16.20;;;5.50;;
12228;SDS011;6177;52.402;9.800;2022-12-24T03:45:32;12.70;;;4.23;;
12228;SDS011;6177;52.402;9.800;2022-12-24T03:48:17;11.90;;;4.43;;
12228;SDS011;6177;52.402;9.800;2022-12-24T03:51:02;12.67;;;4.53;;
12228;SDS011;6177;52.402;9.800;2022-12-24T03:53:47;16.70;;;4.67;;
12228;SDS011;6177;52.402;9.800;2022-12-24T03:56:33;12.23;;;4.63;;
12228;SDS011;6177;52.402;9.800;2022-12-24T03:59:18;10.40;;;4.10;;
12228;SDS011;6177;52.402;9.800;2022-12-24T04:02:03;13.60;;;4.37;;
12228;SDS011;6177;52.402;9.800;2022-12-24T04:04:48;14.77;;;4.03;;
12228;SDS011;6177;52.402;9.800;2022-12-24T04:07:33;16.27;;;4.30;;
12228;SDS011;6177;52.402;9.800;2022-12-24T04:10:18;9.77;;;3.77;;
12228;SDS011;6177;52.402;9.800;2022-12-24T04:13:03;14.10;;;4.20;;
12228;SDS011;6177;52.402;9.800;2022-12-24T04:18:42;12.90;;;4.57;;
12228;SDS011;6177;52.402;9.800;2022-12-24T04:21:28;9.43;;;4.23;;
12228;SDS011;6177;52.402;9.800;2022-12-24T04:24:13;13.20;;;3.67;;
12228;SDS011;6177;52.402;9.800;2022-12-24T04:26:58;16.37;;;4.43;;
12228;SDS011;6177;52.402;9.800;2022-12-24T04:29:43;12.13;;;4.23;;
12228;SDS011;6177;52.402;9.800;2022-12-24T04:32:28;15.13;;;4.23;;
12228;SDS011;6177;52.402;9.800;2022-12-24T04:35:13;15.53;;;4.47;;
12228;SDS011;6177;52.402;9.800;2022-12-24T04:37:58;12.93;;;4.20;;
12228;SDS011;6177;52.402;9.800;2022-12-24T04:40:44;13.50;;;3.80;;
12228;SDS011;6177;52.402;9.800;2022-12-24T04:43:32;12.73;;;3.67;;
12228;SDS011;6177;52.402;9.800;2022-12-24T04:46:19;13.40;;;3.77;;
12228;SDS011;6177;52.402;9.800;2022-12-24T04:49:05;18.10;;;4.27;;
12228;SDS011;6177;52.402;9.800;2022-12-24T04:51:50;11.43;;;3.53;;
12228;SDS011;6177;52.402;9.800;2022-12-24T04:54:35;10.97;;;3.50;;
12228;SDS011;6177;52.402;9.800;2022-12-24T04:57:20;13.47;;;3.90;;
12228;SDS011;6177;52.402;9.800;2022-12-24T05:00:06;11.33;;;4.03;;
12228;SDS011;6177;52.402;9.800;2022-12-24T05:02:51;12.17;;;3.50;;
12228;SDS011;6177;52.402;9.800;2022-12-24T05:05:36;5.63;;;3.20;;
12228;SDS011;6177;52.402;9.800;2022-12-24T05:08:22;10.37;;;3.20;;
12228;SDS011;6177;52.402;9.800;2022-12-24T05:11:07;10.43;;;3.47;;
12228;SDS011;6177;52.402;9.800;2022-12-24T05:13:56;11.70;;;3.37;;
12228;SDS011;6177;52.402;9.800;2022-12-24T05:16:41;11.63;;;3.13;;
12228;SDS011;6177;52.402;9.800;2022-12-24T05:19:27;12.37;;;3.60;;
12228;SDS011;6177;52.402;9.800;2022-12-24T05:22:12;15.20;;;3.63;;
12228;SDS011;6177;52.402;9.800;2022-12-24T05:25:16;10.10;;;3.13;;
12228;SDS011;6177;52.402;9.800;2022-12-24T05:28:19;6.67;;;3.00;;
12228;SDS011;6177;52.402;9.800;2022-12-24T05:31:04;13.67;;;4.23;;
12228;SDS011;6177;52.402;9.800;2022-12-24T05:33:49;10.53;;;3.17;;
12228;SDS011;6177;52.402;9.800;2022-12-24T05:36:35;11.03;;;3.07;;
12228;SDS011;6177;52.402;9.800;2022-12-24T05:39:20;9.37;;;3.20;;
12228;SDS011;6177;52.402;9.800;2022-12-24T05:42:05;12.47;;;3.70;;
12228;SDS011;6177;52.402;9.800;2022-12-24T05:44:50;9.90;;;3.67;;
12228;SDS011;6177;52.402;9.800;2022-12-24T05:47:35;12.03;;;3.47;;
12228;SDS011;6177;52.402;9.800;2022-12-24T05:50:20;12.53;;;4.77;;
12228;SDS011;6177;52.402;9.800;2022-12-24T05:53:05;11.60;;;4.70;;
12228;SDS011;6177;52.402;9.800;2022-12-24T05:55:51;9.23;;;4.03;;
12228;SDS011;6177;52.402;9.800;2022-12-24T05:58:37;13.93;;;4.57;;
12228;SDS011;6177;52.402;9.800;2022-12-24T06:01:25;13.43;;;5.00;;
12228;SDS011;6177;52.402;9.800;2022-12-24T06:04:10;13.70;;;4.47;;
12228;SDS011;6177;52.402;9.800;2022-12-24T06:06:56;13.97;;;4.63;;
12228;SDS011;6177;52.402;9.800;2022-12-24T06:09:41;17.63;;;4.47;;
12228;SDS011;6177;52.402;9.800;2022-12-24T06:12:26;14.83;;;4.83;;
12228;SDS011;6177;52.402;9.800;2022-12-24T06:15:12;19.50;;;5.67;;
12228;SDS011;6177;52.402;9.800;2022-12-24T06:17:57;16.83;;;5.40;;
12228;SDS011;6177;52.402;9.800;2022-12-24T06:20:42;20.70;;;5.20;;
12228;SDS011;6177;52.402;9.800;2022-12-24T06:23:28;19.67;;;5.00;;
12228;SDS011;6177;52.402;9.800;2022-12-24T06:26:15;16.60;;;5.33;;
12228;SDS011;6177;52.402;9.800;2022-12-24T06:29:02;14.17;;;5.43;;
12228;SDS011;6177;52.402;9.800;2022-12-24T06:31:47;12.40;;;4.77;;
12228;SDS011;6177;52.402;9.800;2022-12-24T06:34:32;22.20;;;6.07;;
12228;SDS011;6177;52.402;9.800;2022-12-24T06:37:17;12.33;;;4.70;;
12228;SDS011;6177;52.402;9.800;2022-12-24T06:40:03;19.33;;;4.87;;
12228;SDS011;6177;52.402;9.800;2022-12-24T06:42:49;17.17;;;4.23;;
12228;SDS011;6177;52.402;9.800;2022-12-24T06:45:34;17.43;;;4.67;;
12228;SDS011;6177;52.402;9.800;2022-12-24T06:48:19;14.83;;;4.17;;
12228;SDS011;6177;52.402;9.800;2022-12-24T06:51:05;11.63;;;4.73;;
12228;SDS011;6177;52.402;9.800;2022-12-24T06:53:50;14.47;;;4.77;;
12228;SDS011;6177;52.402;9.800;2022-12-24T06:56:36;17.87;;;4.90;;
12228;SDS011;6177;52.402;9.800;2022-12-24T06:59:21;16.10;;;5.07;;
12228;SDS011;6177;52.402;9.800;2022-12-24T07:02:06;18.57;;;4.60;;
12228;SDS011;6177;52.402;9.800;2022-12-24T07:04:52;16.10;;;4.67;;
12228;SDS011;6177;52.402;9.800;2022-12-24T07:07:37;18.03;;;5.27;;
12228;SDS011;6177;52.402;9.800;2022-12-24T07:10:27;13.97;;;4.50;;
12228;SDS011;6177;52.402;9.800;2022-12-24T07:13:12;12.50;;;4.50;;
12228;SDS011;6177;52.402;9.800;2022-12-24T07:15:58;13.83;;;4.87;;
12228;SDS011;6177;52.402;9.800;2022-12-24T07:18:44;18.43;;;4.50;;
12228;SDS011;6177;52.402;9.800;2022-12-24T07:21:29;17.00;;;4.67;;
12228;SDS011;6177;52.402;9.800;2022-12-24T07:24:14;15.17;;;3.90;;
12228;SDS011;6177;52.402;9.800;2022-12-24T07:26:59;13.13;;;3.93;;
12228;SDS011;6177;52.402;9.800;2022-12-24T07:29:44;15.27;;;4.03;;
12228;SDS011;6177;52.402;9.800;2022-12-24T07:32:29;17.00;;;4.33;;
12228;SDS011;6177;52.402;9.800;2022-12-24T07:35:14;13.53;;;4.10;;
12228;SDS011;6177;52.402;9.800;2022-12-24T07:38:00;18.93;;;4.77;;
12228;SDS011;6177;52.402;9.800;2022-12-24T07:40:45;12.43;;;4.13;;
12228;SDS011;6177;52.402;9.800;2022-12-24T07:43:31;13.43;;;3.90;;
12228;SDS011;6177;52.402;9.800;2022-12-24T07:46:17;15.00;;;4.33;;
12228;SDS011;6177;52.402;9.800;2022-12-24T07:49:02;12.53;;;4.17;;
12228;SDS011;6177;52.402;9.800;2022-12-24T07:51:47;13.97;;;3.90;;
12228;SDS011;6177;52.402;9.800;2022-12-24T07:54:32;16.67;;;4.60;;
12228;SDS011;6177;52.402;9.800;2022-12-24T07:57:17;17.30;;;4.03;;
12228;SDS011;6177;52.402;9.800;2022-12-24T08:00:02;19.23;;;4.60;;
12228;SDS011;6177;52.402;9.800;2022-12-24T08:02:56;12.43;;;4.13;;
12228;SDS011;6177;52.402;9.800;2022-12-24T08:05:43;17.23;;;5.07;;
12228;SDS011;6177;52.402;9.800;2022-12-24T08:08:29;16.33;;;5.93;;
12228;SDS011;6177;52.402;9.800;2022-12-24T08:11:14;15.83;;;3.87;;
12228;SDS011;6177;52.402;9.800;2022-12-24T08:13:59;13.23;;;4.63;;
12228;SDS011;6177;52.402;9.800;2022-12-24T08:16:44;12.27;;;4.77;;
12228;SDS011;6177;52.402;9.800;2022-12-24T08:19:29;17.03;;;4.63;;
12228;SDS011;6177;52.402;9.800;2022-12-24T08:22:14;15.00;;;4.20;;
12228;SDS011;6177;52.402;9.800;2022-12-24T08:25:46;13.43;;;4.60;;
12228;SDS011;6177;52.402;9.800;2022-12-24T08:28:14;12.90;;;3.70;;
12228;SDS011;6177;52.402;9.800;2022-12-24T08:30:42;14.23;;;3.87;;
12228;SDS011;6177;52.402;9.800;2022-12-24T08:33:08;12.73;;;3.27;;
12228;SDS011;6177;52.402;9.800;2022-12-24T08:35:35;17.80;;;4.07;;
12228;SDS011;6177;52.402;9.800;2022-12-24T08:38:01;13.27;;;3.77;;
12228;SDS011;6177;52.402;9.800;2022-12-24T08:40:27;9.53;;;3.63;;
12228;SDS011;6177;52.402;9.800;2022-12-24T08:42:53;14.60;;;3.47;;
12228;SDS011;6177;52.402;9.800;2022-12-24T08:45:19;12.33;;;4.17;;
12228;SDS011;6177;52.402;9.800;2022-12-24T08:47:45;16.47;;;3.80;;
12228;SDS011;6177;52.402;9.800;2022-12-24T08:50:11;11.97;;;3.77;;
12228;SDS011;6177;52.402;9.800;2022-12-24T08:52:37;15.63;;;4.43;;
12228;SDS011;6177;52.402;9.800;2022-12-24T08:55:03;15.87;;;4.60;;
12228;SDS011;6177;52.402;9.800;2022-12-24T08:57:29;13.23;;;4.37;;
12228;SDS011;6177;52.402;9.800;2022-12-24T08:59:55;16.67;;;5.37;;
12228;SDS011;6177;52.402;9.800;2022-12-24T09:02:21;15.07;;;5.03;;
12228;SDS011;6177;52.402;9.800;2022-12-24T09:04:47;12.73;;;4.77;;
12228;SDS011;6177;52.402;9.800;2022-12-24T09:07:13;15.93;;;4.50;;
12228;SDS011;6177;52.402;9.800;2022-12-24T09:09:39;12.90;;;4.83;;
12228;SDS011;6177;52.402;9.800;2022-12-24T09:12:05;14.80;;;4.10;;
12228;SDS011;6177;52.402;9.800;2022-12-24T09:14:32;14.47;;;4.50;;
12228;SDS011;6177;52.402;9.800;2022-12-24T09:16:58;14.97;;;4.80;;
12228;SDS011;6177;52.402;9.800;2022-12-24T09:19:24;14.60;;;5.23;;
12228;SDS011;6177;52.402;9.800;2022-12-24T09:21:51;13.37;;;5.60;;
12228;SDS011;6177;52.402;9.800;2022-12-24T09:24:17;16.00;;;6.13;;
12228;SDS011;6177;52.402;9.800;2022-12-24T09:26:43;15.37;;;6.27;;
12228;SDS011;6177;52.402;9.800;2022-12-24T09:29:13;16.47;;;6.27;;
12228;SDS011;6177;52.402;9.800;2022-12-24T09:31:40;15.90;;;6.30;;
12228;SDS011;6177;52.402;9.800;2022-12-24T09:34:06;19.33;;;7.10;;
12228;SDS011;6177;52.402;9.800;2022-12-24T09:36:33;16.00;;;6.87;;
12228;SDS011;6177;52.402;9.800;2022-12-24T09:38:59;18.93;;;6.90;;
12228;SDS011;6177;52.402;9.800;2022-12-24T09:46:55;21.17;;;7.47;;
12228;SDS011;6177;52.402;9.800;2022-12-24T09:49:26;20.40;;;7.80;;
12228;SDS011;6177;52.402;9.800;2022-12-24T09:52:04;19.73;;;7.47;;
12228;SDS011;6177;52.402;9.800;2022-12-24T09:54:35;14.77;;;7.47;;
12228;SDS011;6177;52.402;9.800;2022-12-24T09:57:36;13.90;;;7.00;;
12228;SDS011;6177;52.402;9.800;2022-12-24T10:00:25;23.37;;;7.13;;
12228;SDS011;6177;52.402;9.800;2022-12-24T10:02:57;18.80;;;6.63;;
12228;SDS011;6177;52.402;9.800;2022-12-24T10:09:14;20.87;;;7.37;;
12228;SDS011;6177;52.402;9.800;2022-12-24T10:26:44;14.83;;;6.27;;
12228;SDS011;6177;52.402;9.800;2022-12-24T10:29:19;13.43;;;5.83;;
12228;SDS011;6177;52.402;9.800;2022-12-24T10:34:44;17.23;;;6.10;;
12228;SDS011;6177;52.402;9.800;2022-12-24T10:37:18;14.93;;;5.40;;
12228;SDS011;6177;52.402;9.800;2022-12-24T10:39:50;20.13;;;6.33;;
12228;SDS011;6177;52.402;9.800;2022-12-24T10:42:17;17.50;;;5.70;;
12228;SDS011;6177;52.402;9.800;2022-12-24T10:44:46;19.97;;;6.70;;
12228;SDS011;6177;52.402;9.800;2022-12-24T10:47:16;11.23;;;5.47;;
12228;SDS011;6177;52.402;9.800;2022-12-24T10:49:56;19.23;;;6.23;;
12228;SDS011;6177;52.402;9.800;2022-12-24T10:52:28;13.77;;;6.10;;
12228;SDS011;6177;52.402;9.800;2022-12-24T10:55:05;15.60;;;5.73;;
12228;SDS011;6177;52.402;9.800;2022-12-24T10:57:44;15.90;;;7.03;;
12228;SDS011;6177;52.402;9.800;2022-12-24T11:00:21;17.17;;;6.03;;
12228;SDS011;6177;52.402;9.800;2022-12-24T11:02:49;15.60;;;6.30;;
12228;SDS011;6177;52.402;9.800;2022-12-24T11:05:33;20.00;;;6.90;;
12228;SDS011;6177;52.402;9.800;2022-12-24T11:10:32;18.43;;;6.10;;
12228;SDS011;6177;52.402;9.800;2022-12-24T11:13:01;17.50;;;5.53;;
12228;SDS011;6177;52.402;9.800;2022-12-24T11:15:31;13.67;;;5.03;;
12228;SDS011;6177;52.402;9.800;2022-12-24T11:18:03;11.97;;;5.40;;
12228;SDS011;6177;52.402;9.800;2022-12-24T11:20:33;11.13;;;4.80;;
12228;SDS011;6177;52.402;9.800;2022-12-24T11:23:00;11.07;;;4.57;;
12228;SDS011;6177;52.402;9.800;2022-12-24T11:25:27;10.93;;;4.73;;
12228;SDS011;6177;52.402;9.800;2022-12-24T11:28:09;9.67;;;4.43;;
12228;SDS011;6177;52.402;9.800;2022-12-24T11:30:42;13.87;;;5.33;;
12228;SDS011;6177;52.402;9.800;2022-12-24T11:33:29;9.87;;;4.70;;
12228;SDS011;6177;52.402;9.800;2022-12-24T11:36:00;13.13;;;5.87;;
12228;SDS011;6177;52.402;9.800;2022-12-24T11:38:31;11.40;;;5.17;;
12228;SDS011;6177;52.402;9.800;2022-12-24T11:41:03;10.40;;;5.03;;
12228;SDS011;6177;52.402;9.800;2022-12-24T11:43:38;10.50;;;5.67;;
12228;SDS011;6177;52.402;9.800;2022-12-24T11:46:17;10.67;;;5.20;;
12228;SDS011;6177;52.402;9.800;2022-12-24T11:48:45;13.63;;;5.93;;
12228;SDS011;6177;52.402;9.800;2022-12-24T11:51:19;14.87;;;6.50;;
12228;SDS011;6177;52.402;9.800;2022-12-24T11:53:52;11.70;;;6.20;;
12228;SDS011;6177;52.402;9.800;2022-12-24T11:59:22;11.17;;;5.43;;
12228;SDS011;6177;52.402;9.800;2022-12-24T12:04:59;11.03;;;4.50;;
12228;SDS011;6177;52.402;9.800;2022-12-24T12:07:33;5.77;;;3.47;;
12228;SDS011;6177;52.402;9.800;2022-12-24T12:10:10;8.50;;;3.60;;
12228;SDS011;6177;52.402;9.800;2022-12-24T12:13:02;7.70;;;4.07;;
12228;SDS011;6177;52.402;9.800;2022-12-24T12:15:34;9.13;;;3.67;;
12228;SDS011;6177;52.402;9.800;2022-12-24T12:18:10;6.37;;;4.03;;
12228;SDS011;6177;52.402;9.800;2022-12-24T12:20:59;11.20;;;4.07;;
12228;SDS011;6177;52.402;9.800;2022-12-24T12:23:37;6.70;;;3.37;;
12228;SDS011;6177;52.402;9.800;2022-12-24T12:26:11;7.50;;;3.67;;
12228;SDS011;6177;52.402;9.800;2022-12-24T12:31:56;10.90;;;3.70;;
12228;SDS011;6177;52.402;9.800;2022-12-24T12:36:57;9.47;;;3.90;;
12228;SDS011;6177;52.402;9.800;2022-12-24T12:39:29;6.50;;;3.27;;
12228;SDS011;6177;52.402;9.800;2022-12-24T12:53:23;14.60;;;5.37;;
12228;SDS011;6177;52.402;9.800;2022-12-24T12:58:52;11.83;;;4.43;;
12228;SDS011;6177;52.402;9.800;2022-12-24T13:12:25;14.87;;;5.67;;
12228;SDS011;6177;52.402;9.800;2022-12-24T13:20:58;11.80;;;5.63;;
12228;SDS011;6177;52.402;9.800;2022-12-24T13:23:24;15.00;;;6.47;;
12228;SDS011;6177;52.402;9.800;2022-12-24T13:25:56;18.00;;;7.47;;
12228;SDS011;6177;52.402;9.800;2022-12-24T13:30:49;17.50;;;7.23;;
12228;SDS011;6177;52.402;9.800;2022-12-24T13:36:05;22.33;;;8.50;;
12228;SDS011;6177;52.402;9.800;2022-12-24T13:38:37;16.60;;;8.87;;
12228;SDS011;6177;52.402;9.800;2022-12-24T13:44:13;3.33;;;2.00;;
12228;SDS011;6177;52.402;9.800;2022-12-24T13:49:16;3.53;;;2.37;;
12228;SDS011;6177;52.402;9.800;2022-12-24T13:51:44;5.87;;;2.17;;
12228;SDS011;6177;52.402;9.800;2022-12-24T13:54:11;2.17;;;1.27;;
12228;SDS011;6177;52.402;9.800;2022-12-24T13:56:39;2.60;;;1.33;;
12228;SDS011;6177;52.402;9.800;2022-12-24T14:02:04;3.90;;;1.30;;
12228;SDS011;6177;52.402;9.800;2022-12-24T14:04:46;4.13;;;0.90;;
12228;SDS011;6177;52.402;9.800;2022-12-24T14:19:15;1.77;;;1.53;;
12228;SDS011;6177;52.402;9.800;2022-12-24T14:22:01;4.53;;;1.67;;
12228;SDS011;6177;52.402;9.800;2022-12-24T14:24:37;3.10;;;1.57;;
12228;SDS011;6177;52.402;9.800;2022-12-24T14:27:11;5.40;;;2.10;;
12228;SDS011;6177;52.402;9.800;2022-12-24T14:29:49;7.27;;;2.33;;
12228;SDS011;6177;52.402;9.800;2022-12-24T14:32:32;3.07;;;2.23;;
12228;SDS011;6177;52.402;9.800;2022-12-24T14:35:27;4.57;;;2.47;;
12228;SDS011;6177;52.402;9.800;2022-12-24T14:37:59;6.00;;;2.43;;
12228;SDS011;6177;52.402;9.800;2022-12-24T14:40:30;5.13;;;2.57;;
12228;SDS011;6177;52.402;9.800;2022-12-24T14:43:08;7.33;;;3.17;;
12228;SDS011;6177;52.402;9.800;2022-12-24T14:45:42;4.87;;;2.73;;
12228;SDS011;6177;52.402;9.800;2022-12-24T14:48:27;5.50;;;2.83;;
12228;SDS011;6177;52.402;9.800;2022-12-24T14:51:21;7.40;;;3.43;;
12228;SDS011;6177;52.402;9.800;2022-12-24T14:54:46;7.07;;;4.20;;
12228;SDS011;6177;52.402;9.800;2022-12-24T14:57:11;6.40;;;4.73;;
12228;SDS011;6177;52.402;9.800;2022-12-24T15:07:40;6.93;;;4.17;;
12228;SDS011;6177;52.402;9.800;2022-12-24T15:10:19;7.80;;;4.07;;
12228;SDS011;6177;52.402;9.800;2022-12-24T15:12:47;7.20;;;3.73;;
12228;SDS011;6177;52.402;9.800;2022-12-24T15:15:15;8.10;;;4.33;;
12228;SDS011;6177;52.402;9.800;2022-12-24T15:17:42;10.67;;;4.30;;
12228;SDS011;6177;52.402;9.800;2022-12-24T15:20:13;8.50;;;4.27;;
12228;SDS011;6177;52.402;9.800;2022-12-24T15:22:45;7.73;;;4.70;;
12228;SDS011;6177;52.402;9.800;2022-12-24T15:25:34;7.43;;;4.50;;
12228;SDS011;6177;52.402;9.800;2022-12-24T15:28:00;9.90;;;4.40;;
12228;SDS011;6177;52.402;9.800;2022-12-24T15:30:26;13.73;;;5.07;;
12228;SDS011;6177;52.402;9.800;2022-12-24T15:32:54;14.40;;;5.50;;
12228;SDS011;6177;52.402;9.800;2022-12-24T15:35:32;13.43;;;5.97;;
12228;SDS011;6177;52.402;9.800;2022-12-24T15:37:59;16.50;;;5.60;;
12228;SDS011;6177;52.402;9.800;2022-12-24T15:40:30;12.20;;;6.33;;
12228;SDS011;6177;52.402;9.800;2022-12-24T15:42:59;12.03;;;6.23;;
12228;SDS011;6177;52.402;9.800;2022-12-24T15:45:29;14.97;;;7.10;;
12228;SDS011;6177;52.402;9.800;2022-12-24T15:48:00;17.33;;;6.87;;
12228;SDS011;6177;52.402;9.800;2022-12-24T15:50:44;17.50;;;7.20;;
12228;SDS011;6177;52.402;9.800;2022-12-24T15:53:16;21.30;;;7.83;;
12228;SDS011;6177;52.402;9.800;2022-12-24T15:56:04;16.53;;;6.87;;
12228;SDS011;6177;52.402;9.800;2022-12-24T15:58:50;23.67;;;9.53;;
12228;SDS011;6177;52.402;9.800;2022-12-24T16:01:35;19.93;;;8.17;;
12228;SDS011;6177;52.402;9.800;2022-12-24T16:04:12;26.47;;;9.23;;
12228;SDS011;6177;52.402;9.800;2022-12-24T16:06:52;21.73;;;9.90;;
12228;SDS011;6177;52.402;9.800;2022-12-24T16:12:17;19.77;;;9.60;;
12228;SDS011;6177;52.402;9.800;2022-12-24T16:14:46;22.43;;;9.80;;
12228;SDS011;6177;52.402;9.800;2022-12-24T16:17:16;21.90;;;10.10;;
12228;SDS011;6177;52.402;9.800;2022-12-24T16:19:49;18.10;;;9.30;;
12228;SDS011;6177;52.402;9.800;2022-12-24T16:22:18;27.67;;;10.30;;
12228;SDS011;6177;52.402;9.800;2022-12-24T16:25:00;27.63;;;10.23;;
12228;SDS011;6177;52.402;9.800;2022-12-24T16:27:39;24.33;;;10.10;;
12228;SDS011;6177;52.402;9.800;2022-12-24T16:30:05;24.70;;;10.20;;
12228;SDS011;6177;52.402;9.800;2022-12-24T16:32:34;27.17;;;11.33;;
12228;SDS011;6177;52.402;9.800;2022-12-24T16:35:03;25.67;;;10.07;;
12228;SDS011;6177;52.402;9.800;2022-12-24T16:37:30;25.53;;;10.17;;
12228;SDS011;6177;52.402;9.800;2022-12-24T16:39:56;24.83;;;10.47;;
12228;SDS011;6177;52.402;9.800;2022-12-24T16:42:23;21.43;;;9.87;;
12228;SDS011;6177;52.402;9.800;2022-12-24T16:45:07;27.97;;;10.00;;
12228;SDS011;6177;52.402;9.800;2022-12-24T16:47:34;18.07;;;9.23;;
12228;SDS011;6177;52.402;9.800;2022-12-24T16:50:03;22.70;;;8.77;;
12228;SDS011;6177;52.402;9.800;2022-12-24T16:52:30;20.70;;;9.57;;
12228;SDS011;6177;52.402;9.800;2022-12-24T16:55:00;23.83;;;8.97;;
12228;SDS011;6177;52.402;9.800;2022-12-24T16:57:26;26.07;;;9.93;;
12228;SDS011;6177;52.402;9.800;2022-12-24T16:59:52;22.03;;;8.87;;
12228;SDS011;6177;52.402;9.800;2022-12-24T17:02:19;22.47;;;8.93;;
12228;SDS011;6177;52.402;9.800;2022-12-24T17:04:47;20.43;;;9.60;;
12228;SDS011;6177;52.402;9.800;2022-12-24T17:07:14;26.73;;;9.30;;
12228;SDS011;6177;52.402;9.800;2022-12-24T17:09:44;27.10;;;9.80;;
12228;SDS011;6177;52.402;9.800;2022-12-24T17:12:10;21.37;;;9.03;;
12228;SDS011;6177;52.402;9.800;2022-12-24T17:14:38;18.70;;;9.57;;
12228;SDS011;6177;52.402;9.800;2022-12-24T17:17:04;21.20;;;9.37;;
12228;SDS011;6177;52.402;9.800;2022-12-24T17:19:30;23.43;;;9.13;;
12228;SDS011;6177;52.402;9.800;2022-12-24T17:21:56;24.77;;;8.90;;
12228;SDS011;6177;52.402;9.800;2022-12-24T17:24:22;21.80;;;9.47;;
12228;SDS011;6177;52.402;9.800;2022-12-24T17:26:49;26.97;;;10.53;;
12228;SDS011;6177;52.402;9.800;2022-12-24T17:29:15;24.17;;;10.40;;
12228;SDS011;6177;52.402;9.800;2022-12-24T17:31:41;22.30;;;9.97;;
12228;SDS011;6177;52.402;9.800;2022-12-24T17:34:07;31.80;;;10.17;;
12228;SDS011;6177;52.402;9.800;2022-12-24T17:36:33;23.30;;;9.83;;
12228;SDS011;6177;52.402;9.800;2022-12-24T17:38:59;25.60;;;9.77;;
12228;SDS011;6177;52.402;9.800;2022-12-24T17:41:25;31.00;;;10.67;;
12228;SDS011;6177;52.402;9.800;2022-12-24T17:43:51;22.90;;;9.80;;
12228;SDS011;6177;52.402;9.800;2022-12-24T17:46:18;29.87;;;10.67;;
12228;SDS011;6177;52.402;9.800;2022-12-24T17:48:47;26.63;;;10.33;;
12228;SDS011;6177;52.402;9.800;2022-12-24T17:51:17;22.00;;;10.07;;
12228;SDS011;6177;52.402;9.800;2022-12-24T17:53:45;23.30;;;9.60;;
12228;SDS011;6177;52.402;9.800;2022-12-24T17:56:12;23.43;;;9.93;;
12228;SDS011;6177;52.402;9.800;2022-12-24T17:58:40;26.70;;;10.33;;
12228;SDS011;6177;52.402;9.800;2022-12-24T18:01:11;19.17;;;8.90;;
12228;SDS011;6177;52.402;9.800;2022-12-24T18:03:39;25.53;;;10.33;;
12228;SDS011;6177;52.402;9.800;2022-12-24T18:06:05;21.70;;;8.97;;
12228;SDS011;6177;52.402;9.800;2022-12-24T18:08:32;19.40;;;9.47;;
12228;SDS011;6177;52.402;9.800;2022-12-24T18:10:59;29.63;;;9.50;;
12228;SDS011;6177;52.402;9.800;2022-12-24T18:13:33;23.93;;;9.30;;
12228;SDS011;6177;52.402;9.800;2022-12-24T18:15:59;20.67;;;8.93;;
12228;SDS011;6177;52.402;9.800;2022-12-24T18:18:25;18.63;;;7.90;;
12228;SDS011;6177;52.402;9.800;2022-12-24T18:20:51;22.00;;;8.77;;
12228;SDS011;6177;52.402;9.800;2022-12-24T18:23:17;17.53;;;7.93;;